Time;durP1;ratioP1;P1;durP2;ratioP2;P2;SDS_P1;SDS_P2;PMS_P1;PMS_P2;Temp;Humidity;BMP_temperature;BMP_pressure;BME280_temperature;BME280_humidity;BME280_pressure;Samples;Min_cycle;Max_cycle;Signal;HPM_P1;HPM_P2
2023/03/24 00:02:17;;;;;;;38.42;33.42;;;15.90;88.30;;;;;;6217071;23;20005;-81
2023/03/24 00:04:43;;;;;;;39.22;32.55;;;15.80;88.30;;;;;;6189976;23;20000;-81
2023/03/24 00:07:13;;;;;;;41.13;32.95;;;15.80;88.30;;;;;;6190542;23;20072;-82
2023/03/24 00:09:43;;;;;;;;;;;15.80;88.70;;;;;;6217592;23;19996;-81
2023/03/24 00:12:12;;;;;;;37.70;30.80;;;15.70;88.80;;;;;;6217363;23;19900;-81
2023/03/24 00:14:39;;;;;;;36.55;29.02;;;15.70;88.90;;;;;;6216760;23;20050;-82
2023/03/24 00:17:08;;;;;;;41.72;33.47;;;15.70;89.40;;;;;;6216829;23;20046;-81
2023/03/24 00:19:37;;;;;;;40.63;31.55;;;15.60;89.90;;;;;;6216892;23;20004;-82
2023/03/24 00:22:04;;;;;;;40.40;31.40;;;15.50;89.60;;;;;;6217270;23;20005;-82
2023/03/24 00:24:31;;;;;;;40.28;31.73;;;15.60;89.60;;;;;;6184612;23;20017;-83
2023/03/24 00:26:57;;;;;;;41.47;33.38;;;15.50;89.90;;;;;;6186963;23;20001;-82
2023/03/24 00:29:23;;;;;;;45.88;34.40;;;15.50;90.10;;;;;;6186581;23;20364;-84
2023/03/24 00:31:51;;;;;;;40.83;33.60;;;15.50;89.80;;;;;;6187177;23;20323;-82
2023/03/24 00:34:20;;;;;;;42.13;34.08;;;15.60;90.20;;;;;;6186788;23;20005;-81
2023/03/24 00:36:52;;;;;;;39.40;31.35;;;15.60;90.20;;;;;;6186793;23;20064;-82
2023/03/24 00:39:19;;;;;;;38.50;30.35;;;15.60;90.20;;;;;;6186278;23;20005;-84
2023/03/24 00:41:46;;;;;;;39.00;32.05;;;15.60;90.20;;;;;;6186472;23;20005;-81
2023/03/24 00:44:17;;;;;;;40.15;31.77;;;15.50;90.20;;;;;;6186007;23;20104;-82
2023/03/24 00:46:54;;;;;;;37.28;29.05;;;15.50;90.20;;;;;;6186853;23;19997;-81
2023/03/24 00:49:47;;;;;;;40.10;29.95;;;15.40;90.20;;;;;;6186228;23;20009;-81
2023/03/24 00:52:16;;;;;;;40.33;30.63;;;15.30;90.10;;;;;;6185568;23;20059;-80
2023/03/24 00:54:44;;;;;;;38.75;30.40;;;15.20;90.10;;;;;;6186509;23;20008;-81
2023/03/24 00:57:11;;;;;;;41.10;30.88;;;15.20;90.40;;;;;;6186692;23;20025;-81
2023/03/24 00:59:41;;;;;;;41.78;32.28;;;15.10;90.40;;;;;;6186747;23;20024;-81
2023/03/24 01:02:12;;;;;;;38.10;30.55;;;15.10;90.60;;;;;;6186488;23;20005;-80
2023/03/24 01:04:39;;;;;;;40.00;31.70;;;15.10;90.60;;;;;;6185817;23;20005;-80
2023/03/24 01:07:06;;;;;;;40.10;30.92;;;15.10;90.70;;;;;;6186137;23;20474;-80
2023/03/24 01:09:35;;;;;;;39.03;30.75;;;15.10;90.80;;;;;;6186182;23;19997;-81
2023/03/24 01:12:03;;;;;;;38.55;29.73;;;15.10;90.90;;;;;;6186603;23;20004;-80
2023/03/24 01:14:31;;;;;;;38.00;30.25;;;15.20;90.90;;;;;;6185969;23;20001;-81
2023/03/24 01:16:57;;;;;;;37.80;30.20;;;15.10;91.00;;;;;;6186202;23;20051;-81
2023/03/24 01:19:24;;;;;;;38.00;29.63;;;15.10;91.10;;;;;;6186339;23;20001;-82
2023/03/24 01:21:53;;;;;;;40.22;30.85;;;15.10;91.20;;;;;;6186477;23;20001;-81
2023/03/24 01:24:20;;;;;;;40.15;30.30;;;15.10;91.20;;;;;;6190791;23;20013;-82
2023/03/24 01:26:46;;;;;;;37.25;30.48;;;15.10;91.50;;;;;;6215123;23;20005;-81
2023/03/24 01:29:12;;;;;;;41.47;31.75;;;15.10;91.50;;;;;;6215876;23;19997;-81
2023/03/24 01:31:37;;;;;;;43.13;33.25;;;15.10;91.60;;;;;;6189648;23;20007;-82
2023/03/24 01:34:05;;;;;;;46.08;33.95;;;15.10;91.90;;;;;;6215593;23;20023;-81
2023/03/24 01:36:30;;;;;;;45.22;33.33;;;15.10;91.70;;;;;;6215524;23;20426;-81
2023/03/24 01:38:59;;;;;;;52.92;37.45;;;15.10;92.00;;;;;;6216372;23;20079;-81
2023/03/24 01:41:33;;;;;;;49.08;36.75;;;15.10;92.00;;;;;;6215676;23;20434;-81
2023/03/24 01:43:58;;;;;;;47.30;35.17;;;15.10;92.10;;;;;;6215778;23;20005;-81
2023/03/24 01:46:25;;;;;;;48.53;36.38;;;15.10;92.30;;;;;;6216125;23;20007;-80
2023/03/24 01:49:04;;;;;;;48.80;36.58;;;15.10;92.40;;;;;;6215634;23;20001;-80
2023/03/24 01:51:34;;;;;;;46.97;36.78;;;15.10;92.40;;;;;;6216234;23;20000;-80
2023/03/24 01:54:02;;;;;;;48.10;36.65;;;15.10;92.30;;;;;;6215332;23;20004;-80
2023/03/24 01:56:31;;;;;;;52.75;37.60;;;15.10;92.50;;;;;;6189176;23;20016;-80
2023/03/24 01:59:02;;;;;;;50.47;37.65;;;15.10;92.60;;;;;;6215539;23;20015;-80
2023/03/24 02:01:30;;;;;;;59.58;37.60;;;15.10;92.80;;;;;;6215939;23;20005;-80
2023/03/24 02:03:57;;;;;;;63.97;39.80;;;15.00;92.80;;;;;;6215297;23;20100;-81
2023/03/24 02:06:26;;;;;;;51.80;37.75;;;15.00;92.90;;;;;;6215666;23;20327;-80
2023/03/24 02:08:54;;;;;;;55.63;39.88;;;15.00;93.10;;;;;;6215650;23;20326;-81
2023/03/24 02:11:22;;;;;;;56.05;39.25;;;14.90;93.00;;;;;;6215643;23;20016;-81
2023/03/24 02:13:48;;;;;;;51.65;37.38;;;15.00;93.20;;;;;;6215712;23;20005;-81
2023/03/24 02:16:42;;;;;;;54.58;37.97;;;14.90;93.20;;;;;;6216140;23;20462;-81
2023/03/24 02:19:51;;;;;;;47.33;34.97;;;14.90;93.40;;;;;;6189363;23;20351;-82
2023/03/24 02:22:16;;;;;;;49.45;35.47;;;14.90;93.30;;;;;;6152939;23;20040;-82
2023/03/24 02:24:51;;;;;;;53.47;36.17;;;14.90;93.40;;;;;;6152876;23;20067;-81
2023/03/24 02:27:48;;;;;;;51.45;36.70;;;14.90;93.60;;;;;;6186753;23;20083;-82
2023/03/24 02:30:29;;;;;;;76.38;37.15;;;15.00;93.60;;;;;;6189539;23;20001;-82
2023/03/24 02:33:04;;;;;;;70.72;36.83;;;14.90;93.70;;;;;;6188656;23;20009;-82
2023/03/24 02:36:00;;;;;;;57.28;32.63;;;14.80;93.70;;;;;;6215523;23;20004;-82
2023/03/24 02:39:01;;;;;;;53.22;33.17;;;14.70;93.90;;;;;;6215177;23;20016;-81
2023/03/24 02:42:04;;;;;;;46.95;32.95;;;14.60;93.90;;;;;;6183036;23;20075;-83
2023/03/24 02:44:49;;;;;;;43.78;30.60;;;14.60;94.00;;;;;;6214864;23;20036;-83
2023/03/24 02:47:20;;;;;;;41.05;30.27;;;14.60;94.20;;;;;;6188876;23;20005;-82
2023/03/24 02:50:09;;;;;;;42.97;30.75;;;14.60;94.20;;;;;;6215743;23;20043;-82
2023/03/24 02:52:39;;;;;;;44.28;30.73;;;14.60;94.30;;;;;;6215526;23;19996;-81
2023/03/24 02:55:18;;;;;;;43.70;32.13;;;14.70;94.30;;;;;;6188351;23;20316;-81
2023/03/24 02:58:25;;;;;;;58.40;29.75;;;14.70;94.30;;;;;;6215381;23;20001;-81
2023/03/24 03:01:29;;;;;;;38.47;27.63;;;14.70;94.20;;;;;;6152637;23;20013;-81
2023/03/24 03:04:03;;;;;;;38.20;26.60;;;14.60;94.20;;;;;;6161833;23;20040;-81
2023/03/24 03:06:36;;;;;;;79.70;29.23;;;14.60;94.30;;;;;;6215098;23;20000;-81
2023/03/24 03:09:07;;;;;;;98.88;36.08;;;14.50;94.50;;;;;;6215281;23;20055;-81
2023/03/24 03:11:34;;;;;;;73.35;30.83;;;14.40;94.60;;;;;;6215060;23;20415;-81
2023/03/24 03:14:09;;;;;;;43.42;31.05;;;14.40;94.60;;;;;;6215429;23;20050;-81
2023/03/24 03:16:37;;;;;;;42.85;30.55;;;14.30;94.50;;;;;;6215219;23;19992;-81
2023/03/24 03:19:17;;;;;;;40.83;28.77;;;14.40;94.70;;;;;;6215225;23;20039;-81
2023/03/24 03:21:46;;;;;;;37.40;27.67;;;14.40;94.60;;;;;;6188330;23;20001;-82
2023/03/24 03:24:18;;;;;;;39.53;27.75;;;14.50;94.60;;;;;;6215101;23;20009;-82
2023/03/24 03:26:46;;;;;;;38.53;28.00;;;14.50;94.40;;;;;;6215406;23;20031;-82
2023/03/24 03:29:17;;;;;;;38.05;29.02;;;14.50;94.30;;;;;;6215342;23;20000;-81
2023/03/24 03:31:50;;;;;;;47.13;29.50;;;14.50;94.30;;;;;;6214543;23;20004;-82
2023/03/24 03:34:22;;;;;;;41.20;28.88;;;14.60;94.20;;;;;;6188979;23;20009;-82
2023/03/24 03:36:58;;;;;;;41.75;30.13;;;14.60;94.10;;;;;;6215023;23;20035;-81
2023/03/24 03:39:30;;;;;;;47.22;29.02;;;14.60;94.10;;;;;;6188733;23;20008;-82
2023/03/24 03:41:56;;;;;;;36.60;26.92;;;14.50;94.10;;;;;;6214962;23;20001;-83
2023/03/24 03:44:23;;;;;;;36.97;27.42;;;14.40;93.90;;;;;;6188181;23;20095;-82
2023/03/24 03:46:49;;;;;;;55.20;25.85;;;14.40;94.10;;;;;;6215268;23;20004;-83
2023/03/24 03:49:15;;;;;;;49.40;25.85;;;14.40;94.20;;;;;;6188680;23;20001;-83
2023/03/24 03:51:40;;;;;;;37.40;24.95;;;14.40;94.10;;;;;;6214267;23;20419;-82
2023/03/24 03:54:10;;;;;;;36.75;27.30;;;14.30;94.20;;;;;;6214408;23;20004;-82
2023/03/24 03:56:37;;;;;;;37.22;26.85;;;14.30;94.30;;;;;;6212474;23;20036;-83
2023/03/24 03:59:05;;;;;;;38.13;27.95;;;14.40;94.30;;;;;;6188435;23;20015;-84
2023/03/24 04:01:35;;;;;;;50.10;26.20;;;14.40;94.30;;;;;;6186565;23;20035;-83
2023/03/24 04:04:11;;;;;;;65.63;24.00;;;14.40;94.30;;;;;;6187623;23;20438;-80
2023/03/24 04:06:59;;;;;;;33.15;23.38;;;14.30;94.20;;;;;;6213991;23;20428;-81
2023/03/24 04:09:54;;;;;;;42.60;24.02;;;14.20;94.30;;;;;;6186585;23;20028;-80
2023/03/24 04:12:26;;;;;;;43.20;22.73;;;14.10;94.20;;;;;;6213843;23;20428;-81
2023/03/24 04:15:18;;;;;;;44.45;25.90;;;14.00;94.30;;;;;;6214302;23;20001;-81
2023/03/24 04:17:51;;;;;;;36.40;25.60;;;13.90;94.40;;;;;;6192420;23;20419;-82
2023/03/24 04:20:45;;;;;;;68.57;29.52;;;13.90;94.40;;;;;;6216022;23;20007;-82
2023/03/24 04:23:38;;;;;;;32.65;24.92;;;13.90;94.60;;;;;;6215196;23;20304;-82
2023/03/24 04:26:15;;;;;;;33.20;23.00;;;13.80;94.40;;;;;;6215486;23;20008;-81
2023/03/24 04:28:56;;;;;;;32.75;23.35;;;13.80;94.60;;;;;;6216019;23;20001;-81
2023/03/24 04:31:30;;;;;;;48.97;24.75;;;13.80;94.60;;;;;;6216174;23;20023;-80
2023/03/24 04:34:02;;;;;;;37.90;20.90;;;13.80;94.60;;;;;;6215263;23;20001;-80
2023/03/24 04:36:43;;;;;;;98.65;29.95;;;13.70;94.60;;;;;;6215528;23;20431;-81
2023/03/24 04:39:16;;;;;;;44.75;21.80;;;13.60;94.80;;;;;;6216607;23;20011;-81
2023/03/24 04:41:44;;;;;;;70.18;25.08;;;13.50;94.90;;;;;;6216499;23;20008;-81
2023/03/24 04:44:11;;;;;;;68.82;26.80;;;13.50;94.80;;;;;;6215754;23;20008;-81
2023/03/24 04:46:38;;;;;;;48.85;23.58;;;13.40;94.60;;;;;;6216132;23;20008;-82
2023/03/24 04:49:04;;;;;;;42.10;21.13;;;13.40;94.90;;;;;;6215236;23;20007;-82
2023/03/24 04:51:31;;;;;;;48.17;24.77;;;13.30;94.90;;;;;;6216524;23;20000;-83
2023/03/24 04:53:56;;;;;;;34.63;21.13;;;13.30;94.80;;;;;;6215617;23;20499;-83
2023/03/24 04:56:28;;;;;;;72.75;24.77;;;13.30;94.80;;;;;;6216132;23;20028;-81
2023/03/24 04:58:55;;;;;;;41.22;20.95;;;13.20;95.10;;;;;;6215649;23;20004;-82
2023/03/24 05:01:21;;;;;;;37.15;23.10;;;13.10;95.10;;;;;;6216392;23;20009;-82
2023/03/24 05:03:47;;;;;;;28.60;21.23;;;13.20;94.90;;;;;;6215710;23;20080;-82
2023/03/24 05:06:13;;;;;;;46.65;22.60;;;13.20;95.00;;;;;;6216501;23;20023;-82
2023/03/24 05:08:40;;;;;;;32.22;22.75;;;13.20;95.00;;;;;;6216139;23;20415;-82
2023/03/24 05:11:06;;;;;;;49.25;26.35;;;13.20;94.90;;;;;;6216137;23;20000;-83
2023/03/24 05:13:31;;;;;;;25.90;19.88;;;13.20;94.80;;;;;;6216114;23;20076;-82
2023/03/24 05:15:57;;;;;;;41.10;22.33;;;13.10;94.90;;;;;;6216473;23;20032;-83
2023/03/24 05:18:23;;;;;;;35.85;23.50;;;13.20;94.90;;;;;;6216168;23;20004;-84
2023/03/24 05:20:49;;;;;;;35.80;22.40;;;13.20;95.90;;;;;;6216606;23;20059;-84
2023/03/24 05:23:15;;;;;;;35.88;23.15;;;13.20;94.80;;;;;;6215804;23;20008;-84
2023/03/24 05:25:41;;;;;;;47.28;24.58;;;13.10;94.90;;;;;;6216766;23;20017;-82
2023/03/24 05:28:07;;;;;;;78.25;31.98;;;13.10;95.00;;;;;;6215332;23;20332;-80
2023/03/24 05:30:33;;;;;;;59.25;27.60;;;12.90;95.50;;;;;;6216554;23;20000;-80
2023/03/24 05:32:59;;;;;;;59.70;31.05;;;12.80;95.70;;;;;;6188771;23;20013;-80
2023/03/24 05:35:25;;;;;;;34.00;22.58;;;12.80;95.70;;;;;;6215840;23;20424;-80
2023/03/24 05:37:51;;;;;;;48.58;24.05;;;12.80;95.50;;;;;;6215764;23;20004;-80
2023/03/24 05:40:17;;;;;;;28.45;17.13;;;12.80;95.40;;;;;;6215798;23;20009;-81
2023/03/24 05:42:42;;;;;;;23.58;18.58;;;12.80;95.20;;;;;;6215685;23;20040;-81
2023/03/24 05:45:10;;;;;;;25.95;21.00;;;12.80;95.10;;;;;;6216305;23;20047;-81
2023/03/24 05:47:36;;;;;;;29.40;22.35;;;12.90;95.20;;;;;;6215648;23;20005;-82
2023/03/24 05:50:02;;;;;;;28.52;21.67;;;12.90;95.10;;;;;;6216114;23;20427;-82
2023/03/24 05:52:28;;;;;;;63.72;26.75;;;13.00;94.90;;;;;;6215952;23;20020;-82
2023/03/24 05:54:54;;;;;;;41.67;22.90;;;13.00;94.70;;;;;;6216388;23;20011;-82
2023/03/24 05:57:20;;;;;;;28.15;22.05;;;13.00;94.70;;;;;;6216203;23;19996;-86
2023/03/24 05:59:46;;;;;;;52.30;28.40;;;12.90;94.80;;;;;;6215562;23;20000;-85
2023/03/24 06:02:11;;;;;;;35.22;23.08;;;12.90;94.70;;;;;;6189518;23;20424;-85
2023/03/24 06:04:37;;;;;;;44.78;23.40;;;12.80;94.80;;;;;;6188455;23;20442;-83
2023/03/24 06:07:03;;;;;;;40.53;26.55;;;12.80;94.90;;;;;;6216061;23;20072;-85
2023/03/24 06:09:31;;;;;;;37.13;22.05;;;12.80;94.90;;;;;;6216170;23;20444;-88
2023/03/24 06:12:04;;;;;;;44.88;23.35;;;12.70;95.50;;;;;;6189888;23;20005;-83
2023/03/24 06:14:30;;;;;;;30.65;22.13;;;12.80;94.70;;;;;;6215898;23;20004;-87
2023/03/24 06:16:58;;;;;;;30.60;22.90;;;12.90;94.90;;;;;;6216217;23;20328;-83
2023/03/24 06:19:25;;;;;;;43.85;25.55;;;13.00;94.50;;;;;;6195205;23;20104;-83
2023/03/24 06:21:52;;;;;;;49.20;25.65;;;13.00;94.70;;;;;;6184688;23;20009;-83
2023/03/24 06:24:18;;;;;;;40.90;25.60;;;12.90;94.60;;;;;;6183546;23;20485;-83
2023/03/24 06:26:48;;;;;;;57.88;28.13;;;12.90;94.60;;;;;;6184317;23;20004;-82
2023/03/24 06:29:17;;;;;;;29.73;22.25;;;12.90;94.50;;;;;;6184266;23;20005;-82
2023/03/24 06:31:43;;;;;;;61.92;25.90;;;12.80;94.40;;;;;;6185282;23;20032;-82
2023/03/24 06:34:09;;;;;;;43.20;23.08;;;12.60;94.80;;;;;;6185772;23;20001;-82
2023/03/24 06:36:35;;;;;;;26.70;19.85;;;12.60;95.00;;;;;;6184715;23;20011;-82
2023/03/24 06:39:01;;;;;;;32.58;22.13;;;12.70;94.80;;;;;;6184771;23;20008;-83
2023/03/24 06:41:28;;;;;;;37.70;22.00;;;12.70;94.80;;;;;;6184677;23;20482;-82
2023/03/24 06:43:53;;;;;;;31.77;21.75;;;12.80;94.70;;;;;;6185329;23;20001;-82
2023/03/24 06:46:19;;;;;;;33.20;23.80;;;12.90;94.60;;;;;;6185552;23;20055;-82
2023/03/24 06:48:45;;;;;;;49.80;27.42;;;13.10;94.50;;;;;;6185967;23;20004;-82
2023/03/24 06:51:11;;;;;;;33.88;23.58;;;13.10;94.60;;;;;;6184785;23;20005;-82
2023/03/24 06:53:39;;;;;;;36.88;23.20;;;13.20;94.60;;;;;;6184308;23;20005;-82
2023/03/24 06:56:06;;;;;;;34.55;24.48;;;13.20;94.10;;;;;;6185357;23;20005;-82
2023/03/24 06:58:33;;;;;;;34.92;23.48;;;13.20;94.30;;;;;;6185417;23;20423;-82
2023/03/24 07:01:00;;;;;;;31.63;23.50;;;13.30;94.40;;;;;;6185138;23;20096;-82
2023/03/24 07:03:26;;;;;;;36.67;25.92;;;13.40;94.30;;;;;;6184342;23;20374;-82
2023/03/24 07:05:51;;;;;;;37.22;25.58;;;13.70;93.70;;;;;;6184016;23;20005;-82
2023/03/24 07:08:18;;;;;;;36.10;25.70;;;13.70;93.50;;;;;;6184508;23;20008;-82
2023/03/24 07:10:43;;;;;;;41.15;27.40;;;13.70;93.50;;;;;;6185181;23;20079;-82
2023/03/24 07:13:09;;;;;;;39.47;27.60;;;13.60;93.30;;;;;;6185419;23;20002;-83
2023/03/24 07:15:35;;;;;;;40.15;28.95;;;13.60;93.60;;;;;;6184061;23;20080;-83
2023/03/24 07:18:01;;;;;;;38.45;27.73;;;13.50;93.50;;;;;;6184040;23;20004;-84
2023/03/24 07:20:26;;;;;;;37.65;27.63;;;13.50;93.70;;;;;;6184545;23;20013;-84
2023/03/24 07:22:56;;;;;;;34.88;25.88;;;13.40;93.70;;;;;;6184456;23;20092;-84
2023/03/24 07:25:22;;;;;;;34.85;26.73;;;13.40;93.80;;;;;;6184243;23;20067;-84
2023/03/24 07:27:52;;;;;;;36.40;27.48;;;13.40;93.80;;;;;;6185149;23;20016;-83
2023/03/24 07:30:17;;;;;;;35.95;26.15;;;13.50;93.90;;;;;;6185135;23;19997;-84
2023/03/24 07:32:43;;;;;;;36.38;27.17;;;13.60;93.80;;;;;;6185668;23;20001;-84
2023/03/24 07:35:10;;;;;;;38.97;29.60;;;13.70;93.70;;;;;;6185704;23;20025;-83
2023/03/24 07:37:37;;;;;;;37.83;27.23;;;13.90;93.30;;;;;;6185324;23;20460;-87
2023/03/24 07:40:10;;;;;;;39.42;27.95;;;13.90;93.20;;;;;;6185293;23;20005;-87
2023/03/24 07:42:42;;;;;;;41.72;27.95;;;13.90;93.20;;;;;;6185520;23;19998;-86
2023/03/24 07:45:11;;;;;;;41.17;27.92;;;13.90;93.40;;;;;;6185415;23;20409;-87
2023/03/24 07:47:38;;;;;;;37.30;26.70;;;13.90;93.30;;;;;;6185302;23;19997;-87
2023/03/24 07:50:08;;;;;;;35.08;27.73;;;13.90;93.20;;;;;;6183845;23;19997;-85
2023/03/24 07:52:38;;;;;;;;;;;13.90;93.10;;;;;;6186949;23;20304;-84
2023/03/24 07:55:12;;;;;;;37.80;26.90;;;13.90;93.30;;;;;;6186848;23;19901;-85
2023/03/24 07:57:41;;;;;;;40.80;28.58;;;13.90;93.30;;;;;;6187469;23;20048;-85
2023/03/24 08:00:14;;;;;;;39.97;28.65;;;13.90;93.40;;;;;;6161246;23;20028;-85
2023/03/24 08:02:40;;;;;;;38.10;28.65;;;13.90;93.60;;;;;;6161067;23;20012;-85
2023/03/24 08:05:09;;;;;;;50.33;33.63;;;14.10;93.30;;;;;;6187223;23;20001;-85
2023/03/24 08:07:35;;;;;;;40.88;29.27;;;14.10;93.40;;;;;;6186830;23;20363;-86
2023/03/24 08:10:01;;;;;;;47.30;33.03;;;14.20;93.30;;;;;;6187232;23;20051;-85
2023/03/24 08:12:27;;;;;;;40.42;29.52;;;14.20;93.10;;;;;;6186149;23;20001;-86
2023/03/24 08:14:52;;;;;;;45.00;31.20;;;14.20;93.10;;;;;;6186632;23;20005;-85
2023/03/24 08:17:18;;;;;;;40.42;28.85;;;14.20;92.90;;;;;;6187042;23;20001;-84
2023/03/24 08:19:43;;;;;;;41.42;29.30;;;14.20;93.10;;;;;;6185929;23;20013;-85
2023/03/24 08:22:10;;;;;;;38.83;28.48;;;14.20;93.00;;;;;;6187070;23;20032;-83
2023/03/24 08:24:35;;;;;;;38.92;28.58;;;14.30;93.00;;;;;;6186340;23;20005;-83
2023/03/24 08:27:05;;;;;;;46.92;31.50;;;14.30;93.00;;;;;;6187493;23;20083;-84
2023/03/24 08:29:33;;;;;;;40.63;28.73;;;14.50;93.00;;;;;;6186410;23;20055;-84
2023/03/24 08:31:59;;;;;;;48.95;34.78;;;14.50;92.80;;;;;;6186553;23;20007;-85
2023/03/24 08:34:25;;;;;;;40.72;29.33;;;14.60;92.60;;;;;;6186057;23;20001;-87
2023/03/24 08:36:51;;;;;;;44.33;32.40;;;14.60;92.70;;;;;;6160088;23;20012;-85
2023/03/24 08:39:17;;;;;;;41.80;29.88;;;14.70;92.60;;;;;;6187111;23;20076;-84
2023/03/24 08:41:44;;;;;;;42.85;30.67;;;14.70;92.50;;;;;;6187474;23;20483;-84
2023/03/24 08:44:10;;;;;;;40.35;29.70;;;14.70;92.60;;;;;;6159847;23;20041;-83
2023/03/24 08:46:36;;;;;;;39.35;30.45;;;14.80;92.50;;;;;;6160682;23;20001;-84
2023/03/24 08:49:02;;;;;;;43.42;31.15;;;14.90;92.30;;;;;;6187450;23;20001;-81
2023/03/24 08:51:29;;;;;;;45.97;32.17;;;15.10;92.20;;;;;;6187225;23;20076;-84
2023/03/24 08:53:54;;;;;;;46.28;31.95;;;15.10;92.40;;;;;;6183076;23;20003;-84
2023/03/24 08:56:21;;;;;;;39.35;29.40;;;15.30;92.30;;;;;;6184986;23;20327;-84
2023/03/24 08:58:49;;;;;;;43.40;30.77;;;15.40;92.10;;;;;;6184837;23;20008;-83
2023/03/24 09:01:16;;;;;;;41.47;30.38;;;15.60;92.00;;;;;;6185166;23;20055;-84
2023/03/24 09:03:43;;;;;;;43.42;31.90;;;15.70;91.50;;;;;;6185876;23;20006;-84
2023/03/24 09:06:10;;;;;;;33.00;22.52;;;15.80;91.30;;;;;;6186030;23;19997;-82
2023/03/24 09:08:36;;;;;;;24.38;17.40;;;16.00;91.70;;;;;;6186725;23;20001;-83
2023/03/24 09:11:02;;;;;;;24.15;17.38;;;16.30;92.20;;;;;;6186707;23;19997;-83
2023/03/24 09:13:28;;;;;;;29.45;20.08;;;16.70;92.20;;;;;;6185732;23;20027;-83
2023/03/24 09:15:59;;;;;;;29.85;21.30;;;17.00;92.10;;;;;;6186404;23;20036;-83
2023/03/24 09:18:24;;;;;;;39.92;29.70;;;17.20;91.60;;;;;;6186810;23;20080;-84
2023/03/24 09:20:51;;;;;;;38.22;30.55;;;17.40;90.80;;;;;;6186485;23;20609;-83
2023/03/24 09:23:17;;;;;;;38.33;28.40;;;17.40;90.20;;;;;;6185349;23;20005;-83
2023/03/24 09:25:43;;;;;;;43.78;31.10;;;17.40;89.40;;;;;;6187410;23;20051;-84
2023/03/24 09:28:08;;;;;;;38.25;29.50;;;17.40;88.40;;;;;;6187798;23;19997;-85
2023/03/24 09:30:34;;;;;;;39.95;30.85;;;17.40;88.00;;;;;;6187248;23;20390;-84
2023/03/24 09:33:00;;;;;;;37.10;29.10;;;17.50;88.40;;;;;;6187975;23;20001;-85
2023/03/24 09:35:26;;;;;;;38.42;29.02;;;17.50;87.60;;;;;;6186910;23;20005;-85
2023/03/24 09:37:54;;;;;;;38.85;28.50;;;17.50;87.70;;;;;;6187245;23;20323;-85
2023/03/24 09:40:27;;;;;;;36.90;28.88;;;17.60;87.60;;;;;;6161155;23;20009;-85
2023/03/24 09:43:04;;;;;;;41.55;32.05;;;17.70;87.10;;;;;;6186974;23;20001;-85
2023/03/24 09:45:39;;;;;;;42.05;30.35;;;17.70;87.20;;;;;;6187665;23;20001;-85
2023/03/24 09:48:12;;;;;;;39.72;30.13;;;17.70;87.10;;;;;;6188212;23;19997;-85
2023/03/24 09:50:41;;;;;;;42.30;32.67;;;17.70;87.00;;;;;;6187135;23;20004;-85
2023/03/24 09:53:38;;;;;;;37.38;30.00;;;17.70;86.30;;;;;;6187697;23;20001;-84
2023/03/24 09:56:12;;;;;;;45.95;33.40;;;17.70;86.50;;;;;;6161102;23;20316;-84
2023/03/24 09:58:40;;;;;;;40.38;30.50;;;17.70;86.70;;;;;;6161080;23;20091;-84
2023/03/24 10:01:15;;;;;;;41.47;30.95;;;17.60;86.80;;;;;;6187007;23;20005;-84
2023/03/24 10:03:50;;;;;;;39.38;30.38;;;;;;;;;;6186817;23;20001;-85
2023/03/24 10:06:25;;;;;;;41.30;34.00;;;17.50;86.90;;;;;;6186925;23;19997;-85
2023/03/24 10:09:23;;;;;;;41.35;31.73;;;17.50;87.30;;;;;;6160770;23;20653;-86
2023/03/24 10:12:04;;;;;;;40.17;30.10;;;17.50;87.30;;;;;;6176827;23;20084;-86
2023/03/24 10:14:40;;;;;;;42.15;31.05;;;17.50;87.50;;;;;;6186753;23;20008;-86
2023/03/24 10:17:32;;;;;;;40.35;30.90;;;17.40;87.60;;;;;;6187565;23;20008;-86
2023/03/24 10:20:23;;;;;;;46.70;33.78;;;17.30;87.80;;;;;;6186282;23;20063;-85
2023/03/24 10:23:22;;;;;;;42.10;31.58;;;17.30;88.00;;;;;;6187451;23;20072;-86
2023/03/24 10:26:38;;;;;;;43.88;31.95;;;17.40;87.70;;;;;;6188577;23;20068;-86
2023/03/24 10:29:32;;;;;;;50.45;35.00;;;17.40;87.90;;;;;;6156582;23;20123;-84
2023/03/24 10:32:03;;;;;;;50.63;35.15;;;17.40;88.00;;;;;;6162677;23;20012;-85
2023/03/24 10:34:32;;;;;;;47.63;32.78;;;17.50;87.40;;;;;;6189403;23;20001;-82
2023/03/24 10:37:01;;;;;;;50.65;35.53;;;17.50;88.00;;;;;;6187955;23;20004;-82
2023/03/24 10:39:29;;;;;;;48.65;35.40;;;17.60;87.90;;;;;;6189219;23;20008;-82
2023/03/24 10:41:57;;;;;;;50.97;34.15;;;17.60;87.10;;;;;;6188058;23;20001;-82
2023/03/24 10:44:24;;;;;;;47.80;34.30;;;17.60;87.90;;;;;;6187325;23;20131;-82
2023/03/24 10:46:54;;;;;;;47.55;34.30;;;17.60;87.20;;;;;;6190053;23;20486;-82
2023/03/24 10:49:22;;;;;;;48.28;34.65;;;17.60;87.10;;;;;;6189070;23;20473;-82
2023/03/24 10:51:52;;;;;;;43.80;32.45;;;17.50;86.70;;;;;;6163299;23;20071;-82
2023/03/24 10:54:19;;;;;;;45.08;31.83;;;17.60;87.20;;;;;;6163084;23;20009;-82
2023/03/24 10:56:49;;;;;;;40.45;30.75;;;17.60;87.30;;;;;;6190478;23;20001;-83
2023/03/24 10:59:24;;;;;;;40.65;29.48;;;17.70;87.50;;;;;;6190957;23;20426;-82
2023/03/24 11:01:57;;;;;;;37.00;27.58;;;17.80;87.30;;;;;;6193875;23;20086;-83
2023/03/24 11:04:23;;;;;;;39.45;29.17;;;17.90;86.80;;;;;;6197337;23;20005;-84
2023/03/24 11:07:00;;;;;;;38.70;29.23;;;17.90;86.20;;;;;;6191906;23;20561;-83
2023/03/24 11:09:26;;;;;;;32.50;25.60;;;17.90;86.00;;;;;;6194940;23;20013;-83
2023/03/24 11:11:52;;;;;;;31.70;25.17;;;18.00;85.80;;;;;;6193691;23;20005;-84
2023/03/24 11:14:26;;;;;;;31.23;23.73;;;18.00;85.00;;;;;;6192254;23;20001;-85
2023/03/24 11:17:22;;;;;;;28.58;23.52;;;18.00;84.50;;;;;;6193135;23;20005;-86
2023/03/24 11:19:53;;;;;;;36.13;26.25;;;18.00;84.30;;;;;;6179427;23;20028;-86
2023/03/24 11:22:19;;;;;;;33.67;25.67;;;18.10;84.20;;;;;;6192305;23;20001;-86
2023/03/24 11:24:51;;;;;;;33.53;26.25;;;18.20;84.20;;;;;;6192795;23;20079;-85
2023/03/24 11:27:17;;;;;;;33.90;26.35;;;18.30;84.20;;;;;;6192502;23;20008;-85
2023/03/24 11:29:48;;;;;;;36.05;28.63;;;18.30;83.80;;;;;;6197528;23;20003;-83
2023/03/24 11:32:21;;;;;;;35.13;28.20;;;18.40;83.50;;;;;;6198085;23;20033;-83
2023/03/24 11:34:55;;;;;;;35.90;28.95;;;18.40;83.40;;;;;;6194043;23;20005;-83
2023/03/24 11:37:24;;;;;;;34.00;26.58;;;18.50;82.70;;;;;;6196574;23;20057;-84
2023/03/24 11:40:11;;;;;;;38.63;30.40;;;18.60;83.10;;;;;;6191634;23;20005;-83
2023/03/24 11:42:59;;;;;;;36.28;28.52;;;18.70;82.20;;;;;;6197196;23;20081;-84
2023/03/24 11:45:43;;;;;;;37.22;28.88;;;18.70;82.10;;;;;;6198243;23;20067;-83
2023/03/24 11:48:47;;;;;;;36.78;27.70;;;18.70;82.40;;;;;;6194440;23;20028;-83
2023/03/24 11:51:27;;;;;;;33.45;26.30;;;19.00;82.80;;;;;;6192714;23;20031;-83
2023/03/24 11:53:55;;;;;;;31.23;25.70;;;19.80;82.30;;;;;;6195025;23;20004;-83
2023/03/24 11:56:32;;;;;;;32.58;25.92;;;21.20;80.60;;;;;;6197419;23;20005;-85
2023/03/24 11:59:30;;;;;;;33.97;27.40;;;22.80;76.10;;;;;;6202312;23;20057;-84
2023/03/24 12:02:25;;;;;;;30.48;25.33;;;23.70;73.30;;;;;;6196004;23;20001;-84
2023/03/24 12:05:09;;;;;;;30.00;26.00;;;24.70;68.20;;;;;;6186668;23;20016;-84
2023/03/24 12:07:44;;;;;;;38.20;27.65;;;25.40;66.80;;;;;;6164552;23;20012;-84
2023/03/24 12:10:37;;;;;;;35.13;30.05;;;26.10;65.00;;;;;;6191374;23;19997;-84
2023/03/24 12:13:14;;;;;;;40.22;31.25;;;26.40;64.20;;;;;;6188730;23;20009;-85
2023/03/24 12:16:26;;;;;;;34.97;27.92;;;26.80;63.10;;;;;;6186951;23;20001;-85
2023/03/24 12:19:10;;;;;;;36.88;31.58;;;27.10;62.10;;;;;;6183408;23;20487;-85
2023/03/24 12:21:41;;;;;;;38.53;31.33;;;27.30;61.40;;;;;;6188049;23;20040;-86
2023/03/24 12:24:57;;;;;;;38.38;33.10;;;27.20;60.50;;;;;;6187466;23;20447;-87
2023/03/24 12:27:45;;;;;;;41.22;32.80;;;27.20;59.80;;;;;;6096447;23;20094;-83
2023/03/24 12:30:29;;;;;;;42.13;34.90;;;27.20;60.50;;;;;;6188773;23;19997;-84
2023/03/24 12:33:01;;;;;;;41.03;31.90;;;27.10;60.10;;;;;;6185966;23;20001;-85
2023/03/24 12:36:00;;;;;;;41.70;32.95;;;27.20;60.20;;;;;;6187982;23;20001;-85
2023/03/24 12:38:31;;;;;;;42.38;35.53;;;27.30;60.20;;;;;;6188664;23;20001;-85
2023/03/24 12:41:21;;;;;;;38.42;32.40;;;27.50;58.70;;;;;;6197527;23;20002;-86
2023/03/24 12:43:52;;;;;;;34.03;29.90;;;27.60;58.70;;;;;;6187443;23;20490;-85
2023/03/24 12:46:32;;;;;;;38.03;32.40;;;27.50;58.80;;;;;;6188658;23;19997;-85
2023/03/24 12:49:22;;;;;;;39.42;31.63;;;27.40;58.20;;;;;;6187964;23;20001;-85
2023/03/24 12:52:01;;;;;;;37.42;31.75;;;27.10;57.90;;;;;;6188307;23;20442;-85
2023/03/24 12:54:32;;;;;;;38.05;33.20;;;26.50;57.90;;;;;;6187977;23;20135;-86